Time;durP1;ratioP1;P1;durP2;ratioP2;P2;SDS_P1;SDS_P2;PMS_P1;PMS_P2;Temp;Humidity;BMP_temperature;BMP_pressure;BME280_temperature;BME280_humidity;BME280_pressure;Samples;Min_cycle;Max_cycle;Signal;HPM_P1;HPM_P2
2021/07/30 00:02:23;;;;;;;12.33;8.70;;;;;;;25.40;64.04;99858.13;1723048;80;21094;-71
2021/07/30 00:04:49;;;;;;;15.03;9.85;;;;;;;25.38;64.19;99851.31;1723991;81;21137;-70
2021/07/30 00:07:15;;;;;;;9.80;8.18;;;;;;;25.34;63.74;99846.92;1720424;81;21051;-71
2021/07/30 00:09:42;;;;;;;10.38;9.08;;;;;;;25.27;63.39;99846.23;1688776;83;22109;-71
2021/07/30 00:12:08;;;;;;;13.72;9.03;;;;;;;25.17;63.59;99847.30;1697979;82;21061;-70
2021/07/30 00:14:35;;;;;;;14.10;10.00;;;;;;;25.08;63.75;99841.41;1700134;81;21612;-71
2021/07/30 00:17:02;;;;;;;11.55;8.20;;;;;;;25.03;63.94;99831.86;1668806;84;21122;-70
2021/07/30 00:19:29;;;;;;;14.63;8.55;;;;;;;25.02;64.01;99824.33;1721832;81;21082;-71
2021/07/30 00:21:55;;;;;;;16.82;8.95;;;;;;;25.02;64.06;99822.17;1726604;81;21114;-72
2021/07/30 00:24:22;;;;;;;11.55;9.35;;;;;;;24.96;64.23;99816.36;1724451;81;22379;-71
2021/07/30 00:26:50;;;;;;;13.18;9.80;;;;;;;24.88;64.46;99812.15;1664694;84;21062;-72
2021/07/30 00:29:18;;;;;;;13.60;8.60;;;;;;;24.83;64.61;99802.58;1687566;83;21056;-71
2021/07/30 00:31:45;;;;;;;13.83;10.13;;;;;;;24.76;64.74;99799.98;1669055;84;21372;-72
2021/07/30 00:34:11;;;;;;;14.50;9.58;;;;;;;24.72;64.92;99799.36;1720798;80;22129;-71
2021/07/30 00:36:37;;;;;;;14.25;9.65;;;;;;;24.68;65.07;99795.47;1719381;82;21026;-72
2021/07/30 00:39:04;;;;;;;18.15;10.10;;;;;;;24.64;65.29;99786.51;1718243;82;21629;-70
2021/07/30 00:41:35;;;;;;;12.10;9.40;;;;;;;24.61;65.48;99789.69;1722438;82;21093;-69
2021/07/30 00:43:58;;;;;;;12.63;8.68;;;;;;;24.51;65.65;99781.33;1719830;81;21004;-71
2021/07/30 00:46:27;;;;;;;12.98;9.40;;;;;;;24.39;66.09;99784.48;1716988;81;21806;-69
2021/07/30 00:48:53;;;;;;;11.57;8.43;;;;;;;24.25;66.41;99787.34;1724740;81;21118;-71
2021/07/30 00:51:20;;;;;;;11.63;9.33;;;;;;;24.16;66.54;99783.85;1719180;80;21091;-70
2021/07/30 00:53:46;;;;;;;15.78;9.25;;;;;;;24.13;66.66;99787.83;1692651;81;21087;-70
2021/07/30 00:56:13;;;;;;;15.00;9.63;;;;;;;24.09;66.68;99784.78;1722617;82;21656;-70
2021/07/30 00:58:39;;;;;;;15.15;9.40;;;;;;;24.06;66.77;99787.10;1724191;81;21105;-70
2021/07/30 01:01:07;;;;;;;11.95;9.83;;;;;;;24.02;66.82;99789.92;1722072;81;21074;-70
2021/07/30 01:03:34;;;;;;;13.50;9.15;;;;;;;23.95;66.82;99790.01;1722988;82;21178;-69
2021/07/30 01:06:01;;;;;;;12.65;9.08;;;;;;;23.89;66.94;99798.45;1718990;81;21070;-68
2021/07/30 01:08:27;;;;;;;13.32;7.90;;;;;;;23.83;66.96;99795.31;1721306;81;21624;-69
2021/07/30 01:10:54;;;;;;;14.50;7.92;;;;;;;23.78;66.87;99788.95;1694266;82;21123;-69
2021/07/30 01:13:20;;;;;;;11.63;8.53;;;;;;;23.81;66.70;99796.56;1721287;81;21542;-69
2021/07/30 01:15:48;;;;;;;11.45;7.83;;;;;;;23.79;66.56;99793.27;1721381;81;21149;-70
2021/07/30 01:18:15;;;;;;;12.13;8.65;;;;;;;23.79;66.47;99795.45;1722062;81;21085;-70
2021/07/30 01:20:44;;;;;;;12.88;8.53;;;;;;;23.76;66.40;99791.86;1722449;82;21070;-69
2021/07/30 01:23:11;;;;;;;10.75;8.20;;;;;;;23.76;66.16;99797.23;1721022;81;21175;-70
2021/07/30 01:25:37;;;;;;;12.25;8.58;;;;;;;23.76;65.99;99799.92;1721650;81;21067;-70
2021/07/30 01:28:04;;;;;;;10.82;7.95;;;;;;;23.79;65.90;99796.79;1725083;81;21059;-71
2021/07/30 01:30:31;;;;;;;11.12;8.30;;;;;;;23.82;65.67;99800.91;1719784;81;21095;-71
2021/07/30 01:32:57;;;;;;;10.58;8.05;;;;;;;23.76;65.80;99802.61;1724167;81;21086;-71
2021/07/30 01:35:24;;;;;;;13.05;8.00;;;;;;;23.69;65.83;99806.70;1722472;81;21696;-68
2021/07/30 01:37:50;;;;;;;11.33;7.42;;;;;;;23.66;65.73;99813.05;1721382;81;21071;-71
2021/07/30 01:40:21;;;;;;;10.90;7.30;;;;;;;23.62;65.82;99809.99;1719186;82;21604;-69
2021/07/30 01:42:45;;;;;;;14.20;8.18;;;;;;;23.64;65.81;99813.80;1690431;82;21448;-69
2021/07/30 01:45:11;;;;;;;10.60;8.28;;;;;;;23.62;65.75;99811.34;1698074;82;21126;-69
2021/07/30 01:47:38;;;;;;;9.10;6.85;;;;;;;23.61;65.69;99813.71;1718892;82;21486;-69
2021/07/30 01:50:05;;;;;;;12.13;7.25;;;;;;;23.60;65.71;99824.14;1700914;81;21648;-70
2021/07/30 01:52:31;;;;;;;10.08;7.72;;;;;;;23.59;65.56;99817.64;1718728;80;21063;-69
2021/07/30 01:54:59;;;;;;;9.25;7.33;;;;;;;23.56;65.50;99823.77;1732611;80;21165;-69
2021/07/30 01:57:25;;;;;;;10.75;7.70;;;;;;;23.54;65.51;99827.73;1733988;80;21054;-71
2021/07/30 01:59:53;;;;;;;10.18;7.33;;;;;;;23.52;65.53;99827.95;1698598;83;21067;-69
2021/07/30 02:02:20;;;;;;;9.68;7.33;;;;;;;23.54;65.43;99836.60;1678578;84;21023;-70
2021/07/30 02:04:46;;;;;;;13.50;7.25;;;;;;;23.55;65.35;99835.57;1671557;83;21079;-69
2021/07/30 02:07:18;;;;;;;9.18;7.78;;;;;;;23.51;65.36;99845.09;1680237;83;22363;-70
2021/07/30 02:09:44;;;;;;;8.60;6.30;;;;;;;23.44;65.46;99843.53;1661593;83;21098;-71
2021/07/30 02:12:10;;;;;;;10.45;7.50;;;;;;;23.34;65.51;99847.52;1654337;84;22320;-71
2021/07/30 02:14:36;;;;;;;9.58;7.00;;;;;;;23.24;65.67;99846.39;1669143;85;21115;-70
2021/07/30 02:17:04;;;;;;;10.05;7.53;;;;;;;23.15;65.83;99849.87;1669877;83;21561;-69
2021/07/30 02:19:30;;;;;;;10.40;7.33;;;;;;;23.10;66.00;99855.03;1682493;83;21961;-69
2021/07/30 02:21:57;;;;;;;11.55;7.20;;;;;;;23.14;66.00;99864.31;1699130;83;21099;-70
2021/07/30 02:24:24;;;;;;;11.55;7.55;;;;;;;23.13;65.99;99859.98;1700284;83;21359;-70
2021/07/30 02:26:52;;;;;;;9.13;6.33;;;;;;;23.12;65.94;99865.06;1675829;83;21094;-70
2021/07/30 02:29:18;;;;;;;9.25;6.67;;;;;;;23.09;65.94;99877.03;1683241;83;21110;-71
2021/07/30 02:31:45;;;;;;;9.90;5.87;;;;;;;23.05;66.20;99876.30;1679104;83;21050;-69
2021/07/30 02:34:12;;;;;;;12.25;7.45;;;;;;;23.05;66.42;99876.30;1700498;83;21505;-69
2021/07/30 02:36:39;;;;;;;10.35;7.25;;;;;;;23.05;66.65;99887.04;1697027;82;22017;-69
2021/07/30 02:39:05;;;;;;;8.48;7.25;;;;;;;23.06;66.81;99894.91;1703840;83;21051;-69
2021/07/30 02:41:31;;;;;;;10.23;7.78;;;;;;;23.13;66.65;99894.86;1700456;82;21063;-71
2021/07/30 02:43:58;;;;;;;13.10;7.87;;;;;;;23.18;66.68;99900.39;1675150;83;21063;-69
2021/07/30 02:46:25;;;;;;;10.00;8.05;;;;;;;23.20;66.63;99894.31;1651024;83;21557;-69
2021/07/30 02:48:52;;;;;;;9.30;7.35;;;;;;;23.20;66.75;99899.69;1676204;84;21147;-69
2021/07/30 02:51:18;;;;;;;9.18;7.78;;;;;;;23.20;66.76;99909.08;1678066;83;21111;-68
2021/07/30 02:53:45;;;;;;;11.73;7.47;;;;;;;23.15;66.71;99911.06;1726467;80;21102;-69
2021/07/30 02:56:11;;;;;;;9.15;7.53;;;;;;;23.13;66.75;99910.46;1729274;80;21115;-69
2021/07/30 02:58:38;;;;;;;9.43;7.28;;;;;;;23.16;66.82;99919.39;1711043;82;21434;-70
2021/07/30 03:01:04;;;;;;;9.08;6.97;;;;;;;23.23;66.83;99921.22;1698621;82;21139;-69
2021/07/30 03:03:31;;;;;;;9.25;7.58;;;;;;;23.29;66.78;99918.48;1726110;82;21403;-70
2021/07/30 03:05:59;;;;;;;8.38;6.65;;;;;;;23.36;66.62;99927.84;1726360;82;21031;-69
2021/07/30 03:08:27;;;;;;;10.60;7.72;;;;;;;23.38;66.45;99927.09;1726764;82;21082;-69
2021/07/30 03:10:56;;;;;;;10.35;7.95;;;;;;;23.39;66.36;99926.59;1728190;80;21144;-70
2021/07/30 03:13:23;;;;;;;9.60;7.22;;;;;;;23.37;66.35;99937.55;1725025;80;22296;-70
2021/07/30 03:15:54;;;;;;;9.73;6.75;;;;;;;23.29;66.22;99939.97;1726880;80;21165;-69
2021/07/30 03:18:21;;;;;;;10.00;7.35;;;;;;;23.26;66.10;99944.95;1727318;80;21704;-71
2021/07/30 03:20:47;;;;;;;11.33;7.47;;;;;;;23.26;65.94;99943.61;1724522;80;21054;-70
2021/07/30 03:23:14;;;;;;;8.90;6.67;;;;;;;23.25;65.97;99950.00;1726803;82;21509;-71
2021/07/30 03:25:41;;;;;;;8.73;6.83;;;;;;;23.23;66.03;99952.09;1702123;82;21316;-69
2021/07/30 03:28:07;;;;;;;10.08;7.00;;;;;;;23.19;66.06;99958.41;1730621;81;21542;-70
2021/07/30 03:30:33;;;;;;;9.40;7.55;;;;;;;23.13;66.09;99954.74;1697564;82;21091;-71
2021/07/30 03:33:03;;;;;;;9.73;7.58;;;;;;;23.09;66.23;99960.22;1711092;82;21066;-69
2021/07/30 03:35:30;;;;;;;11.73;6.87;;;;;;;23.07;66.32;99961.48;1726855;80;21118;-70
2021/07/30 03:37:57;;;;;;;9.35;6.50;;;;;;;23.06;66.29;99960.64;1724751;82;21150;-71
2021/07/30 03:40:24;;;;;;;12.18;6.70;;;;;;;23.08;66.24;99962.62;1729019;80;21121;-70
2021/07/30 03:42:50;;;;;;;9.23;7.03;;;;;;;23.12;66.21;99968.38;1728457;82;21056;-70
2021/07/30 03:45:17;;;;;;;9.10;7.05;;;;;;;23.12;66.03;99969.19;1701030;82;21175;-70
2021/07/30 03:47:44;;;;;;;9.18;6.75;;;;;;;23.07;66.21;99974.91;1727978;80;21067;-70
2021/07/30 03:50:11;;;;;;;10.50;7.37;;;;;;;23.04;66.41;99973.42;1729477;80;21532;-71
2021/07/30 03:52:37;;;;;;;8.18;6.33;;;;;;;23.02;66.41;99978.19;1710972;81;21078;-70
2021/07/30 03:55:05;;;;;;;10.88;6.45;;;;;;;22.99;66.28;99977.28;1733324;80;21798;-71
2021/07/30 03:57:31;;;;;;;10.45;7.50;;;;;;;22.98;66.45;99985.85;1730494;80;21054;-71
2021/07/30 03:59:57;;;;;;;10.23;6.92;;;;;;;23.05;66.41;99993.87;1674371;84;21067;-70
2021/07/30 04:02:24;;;;;;;9.20;7.17;;;;;;;23.11;66.33;99994.89;1732434;80;21084;-70
2021/07/30 04:04:52;;;;;;;8.83;6.83;;;;;;;23.15;66.27;99996.94;1734810;80;21091;-71
2021/07/30 04:07:18;;;;;;;9.95;6.95;;;;;;;23.16;66.11;100005.80;1731084;80;21467;-69
2021/07/30 04:09:45;;;;;;;9.08;6.97;;;;;;;23.15;66.07;100002.83;1704925;81;21137;-73
2021/07/30 04:12:13;;;;;;;8.83;6.90;;;;;;;23.14;65.93;100003.33;1728856;81;21126;-72
2021/07/30 04:14:40;;;;;;;7.80;6.08;;;;;;;23.12;65.95;100005.94;1715113;80;21191;-72
2021/07/30 04:17:08;;;;;;;10.72;7.08;;;;;;;23.13;65.96;100004.39;1732998;80;21553;-70
2021/07/30 04:19:35;;;;;;;8.75;6.33;;;;;;;23.20;65.77;100000.33;1681056;83;21098;-70
2021/07/30 04:22:02;;;;;;;8.68;6.15;;;;;;;23.25;65.43;100011.73;1730465;80;21054;-71
2021/07/30 04:24:29;;;;;;;11.70;6.65;;;;;;;23.22;65.31;100013.50;1733060;80;21097;-72
2021/07/30 04:26:56;;;;;;;8.53;6.83;;;;;;;23.16;65.54;100009.83;1731632;80;21117;-72
2021/07/30 04:29:23;;;;;;;8.45;6.90;;;;;;;23.14;65.90;100010.05;1695455;81;21059;-72
2021/07/30 04:31:50;;;;;;;8.65;6.15;;;;;;;23.14;65.76;100007.89;1734062;81;21047;-71
2021/07/30 04:34:16;;;;;;;8.13;6.37;;;;;;;23.13;65.77;100004.39;1735425;80;21133;-71
2021/07/30 04:36:43;;;;;;;12.45;6.17;;;;;;;23.14;65.65;100001.99;1646839;84;21106;-71
2021/07/30 04:39:09;;;;;;;8.80;6.53;;;;;;;23.21;65.43;100005.98;1733793;81;21158;-73
2021/07/30 04:41:36;;;;;;;7.72;5.85;;;;;;;23.27;65.33;100005.66;1712118;81;21094;-73
2021/07/30 04:44:02;;;;;;;10.38;6.40;;;;;;;23.35;65.45;100008.91;1702385;81;21158;-69
2021/07/30 04:46:29;;;;;;;9.28;6.15;;;;;;;23.41;65.28;100009.08;1711498;80;21090;-74
2021/07/30 04:48:56;;;;;;;10.28;6.33;;;;;;;23.45;65.09;100013.80;1700770;81;21059;-71
2021/07/30 04:51:22;;;;;;;8.25;6.65;;;;;;;23.49;65.04;100014.19;1726149;81;21736;-75
2021/07/30 04:53:49;;;;;;;8.73;5.92;;;;;;;23.52;64.60;100013.76;1687125;82;21146;-72
2021/07/30 04:56:18;;;;;;;10.20;7.45;;;;;;;23.58;64.50;100024.14;1699933;82;21099;-73
2021/07/30 04:58:44;;;;;;;8.25;6.30;;;;;;;23.68;64.10;100016.42;1718076;81;21082;-72
2021/07/30 05:01:11;;;;;;;11.40;6.78;;;;;;;23.76;64.02;100016.69;1715427;82;21078;-72
2021/07/30 05:03:37;;;;;;;8.20;6.42;;;;;;;23.84;63.92;100016.42;1716114;81;21130;-71
2021/07/30 05:06:19;;;;;;;9.60;6.72;;;;;;;23.90;63.50;100015.55;1716297;82;21493;-70
2021/07/30 05:08:45;;;;;;;7.65;5.97;;;;;;;23.95;63.25;100016.25;1718301;82;21119;-72
2021/07/30 05:11:12;;;;;;;10.13;6.20;;;;;;;23.97;63.09;100005.56;1717110;81;21508;-72
2021/07/30 05:13:42;;;;;;;9.88;6.67;;;;;;;24.00;63.22;100009.69;1718978;82;21060;-72
2021/07/30 05:19:00;;;;;;;10.68;6.37;;;;;;;24.10;62.84;100014.03;1730508;81;21116;-69
2021/07/30 05:21:27;;;;;;;9.55;5.65;;;;;;;24.23;62.76;100009.06;1726618;81;21602;-67
2021/07/30 05:23:53;;;;;;;12.55;7.62;;;;;;;24.34;62.73;100007.50;1732687;81;21102;-67
2021/07/30 05:26:20;;;;;;;8.95;6.40;;;;;;;24.44;62.25;100013.18;1727863;81;22345;-67
2021/07/30 05:28:47;;;;;;;7.92;6.03;;;;;;;24.52;61.85;100009.38;1729804;81;21543;-68
2021/07/30 05:31:17;;;;;;;9.95;6.70;;;;;;;24.57;61.37;100009.56;1730037;81;21042;-67
2021/07/30 05:33:44;;;;;;;9.08;6.47;;;;;;;24.60;60.83;100011.81;1729798;81;21528;-69
2021/07/30 05:36:19;;;;;;;7.92;6.20;;;;;;;24.63;60.77;100016.22;1731153;81;21091;-67
2021/07/30 05:38:46;;;;;;;8.73;6.95;;;;;;;24.64;60.26;100016.50;1727855;81;21307;-66
2021/07/30 05:41:12;;;;;;;10.75;7.28;;;;;;;24.65;60.14;100015.46;1733120;81;21507;-66
2021/07/30 05:43:41;;;;;;;10.38;6.85;;;;;;;24.66;60.08;100014.43;1727369;81;21059;-68
2021/07/30 05:46:07;;;;;;;8.28;5.67;;;;;;;24.73;60.06;100020.23;1700529;81;21166;-68
2021/07/30 05:48:34;;;;;;;8.48;6.50;;;;;;;24.79;59.65;100024.19;1729755;81;21091;-67
2021/07/30 05:51:02;;;;;;;11.45;6.58;;;;;;;24.80;59.78;100021.00;1726255;81;21147;-61
2021/07/30 05:53:28;;;;;;;9.73;6.20;;;;;;;24.80;59.76;100019.13;1729161;81;21512;-65
2021/07/30 05:55:54;;;;;;;8.78;5.80;;;;;;;24.85;59.95;100020.61;1728453;81;21081;-68
2021/07/30 05:58:21;;;;;;;8.38;6.70;;;;;;;24.91;59.61;100016.18;1729022;81;21109;-68
2021/07/30 06:00:47;;;;;;;10.40;7.97;;;;;;;24.96;59.47;100014.98;1725517;81;21089;-70
2021/07/30 06:03:14;;;;;;;10.70;7.70;;;;;;;25.00;59.16;100018.06;1727566;81;21121;-70
2021/07/30 06:05:40;;;;;;;9.13;6.40;;;;;;;25.03;59.11;100014.39;1729296;81;22328;-67
2021/07/30 06:08:08;;;;;;;10.32;7.40;;;;;;;25.10;58.72;100021.03;1698269;81;21228;-69
2021/07/30 06:10:35;;;;;;;10.30;5.22;;;;;;;25.16;58.72;100016.59;1729481;81;21153;-68
2021/07/30 06:13:02;;;;;;;9.85;6.45;;;;;;;25.26;58.52;100017.40;1699779;81;21098;-69
2021/07/30 06:15:29;;;;;;;8.80;6.72;;;;;;;25.38;58.07;100017.75;1698786;81;21078;-69
2021/07/30 06:17:56;;;;;;;9.80;6.55;;;;;;;25.48;57.93;100015.03;1717395;81;21565;-71
2021/07/30 06:20:24;;;;;;;9.83;6.78;;;;;;;25.55;57.55;100014.40;1706224;82;21694;-70
2021/07/30 06:22:51;;;;;;;9.45;6.75;;;;;;;25.59;57.45;100012.91;1704405;82;21178;-70
2021/07/30 06:25:17;;;;;;;11.00;7.22;;;;;;;25.64;57.46;100006.30;1704303;82;21135;-71
2021/07/30 06:27:44;;;;;;;8.43;6.58;;;;;;;25.65;56.96;100001.72;1702531;82;21108;-70
2021/07/30 06:30:12;;;;;;;9.78;6.92;;;;;;;25.67;56.79;100004.49;1705906;82;21123;-69
2021/07/30 06:32:39;;;;;;;9.00;6.58;;;;;;;25.73;57.80;100008.94;1703353;82;21103;-67
2021/07/30 06:35:07;;;;;;;9.40;5.78;;;;;;;25.75;57.52;100002.78;1679106;83;21075;-68
2021/07/30 06:37:35;;;;;;;9.20;7.03;;;;;;;25.80;57.72;100000.74;1678714;82;21400;-67
2021/07/30 06:40:02;;;;;;;9.98;6.72;;;;;;;25.84;57.14;99997.89;1705748;82;21144;-68
2021/07/30 06:42:29;;;;;;;8.55;6.17;;;;;;;25.90;56.80;100005.56;1705799;82;21080;-67
2021/07/30 06:44:55;;;;;;;8.38;5.50;;;;;;;26.02;56.63;99996.97;1704315;82;21150;-67
2021/07/30 06:47:23;;;;;;;10.23;6.08;;;;;;;26.13;56.40;100000.74;1700675;82;21083;-67
2021/07/30 06:49:50;;;;;;;8.58;5.92;;;;;;;26.23;56.34;99994.77;1645221;84;21148;-67
2021/07/30 06:52:16;;;;;;;10.85;6.58;;;;;;;26.31;55.39;99985.78;1705862;82;21131;-66
2021/07/30 06:54:44;;;;;;;9.95;7.22;;;;;;;26.39;55.27;99991.86;1705351;82;21100;-68
2021/07/30 06:57:12;;;;;;;8.08;6.33;;;;;;;26.41;55.10;99985.19;1705643;82;21097;-63
2021/07/30 06:59:38;;;;;;;8.40;5.75;;;;;;;26.47;54.17;99986.09;1703281;82;21614;-67
2021/07/30 07:02:06;;;;;;;8.35;6.15;;;;;;;26.52;53.94;99988.91;1702021;82;21108;-68
2021/07/30 07:04:33;;;;;;;9.63;6.25;;;;;;;26.59;53.15;99988.23;1704182;82;21601;-68
2021/07/30 07:07:01;;;;;;;9.60;6.40;;;;;;;26.59;53.22;99990.12;1702382;82;21093;-68
2021/07/30 07:09:28;;;;;;;8.60;6.40;;;;;;;26.59;53.42;99986.88;1704953;82;22041;-69
2021/07/30 07:11:55;;;;;;;8.30;5.97;;;;;;;26.65;53.58;99989.20;1704741;82;21178;-69
2021/07/30 07:14:21;;;;;;;8.50;6.00;;;;;;;26.67;53.47;99988.44;1683302;83;21108;-69
2021/07/30 07:16:49;;;;;;;8.03;5.97;;;;;;;26.69;51.81;99984.42;1707170;82;21100;-68
2021/07/30 07:19:17;;;;;;;9.08;6.47;;;;;;;26.72;52.51;99989.08;1703234;82;21159;-71
2021/07/30 07:21:43;;;;;;;8.18;5.53;;;;;;;26.73;51.24;99988.84;1705475;82;21541;-69
2021/07/30 07:24:10;;;;;;;10.35;6.67;;;;;;;26.75;51.87;99988.06;1704679;82;21066;-69
2021/07/30 07:26:38;;;;;;;7.67;5.85;;;;;;;26.79;51.41;99991.09;1706489;82;21074;-69
2021/07/30 07:29:05;;;;;;;10.40;5.83;;;;;;;26.80;51.53;99985.46;1708231;82;21077;-67
2021/07/30 07:31:33;;;;;;;10.05;7.20;;;;;;;26.82;51.69;99977.94;1703734;82;21138;-74
2021/07/30 07:34:00;;;;;;;9.20;6.40;;;;;;;26.85;51.05;99987.45;1677774;82;21016;-66
2021/07/30 07:36:28;;;;;;;13.80;6.28;;;;;;;26.86;50.88;99984.52;1702167;82;21059;-70
2021/07/30 07:38:56;;;;;;;7.42;5.85;;;;;;;26.90;51.31;99987.55;1683876;82;21106;-67
2021/07/30 07:41:25;;;;;;;7.35;5.67;;;;;;;26.98;50.64;99991.22;1705386;82;21091;-67
2021/07/30 07:43:52;;;;;;;9.95;6.58;;;;;;;26.99;50.07;99986.63;1703620;82;21135;-68
2021/07/30 07:46:18;;;;;;;8.90;7.60;;;;;;;27.02;48.94;99991.01;1705176;82;21099;-67
2021/07/30 07:48:44;;;;;;;10.82;7.97;;;;;;;27.06;48.92;99994.04;1678873;82;22459;-67
2021/07/30 07:51:11;;;;;;;12.82;9.35;;;;;;;27.10;48.52;99996.56;1705483;82;21048;-67
2021/07/30 07:53:37;;;;;;;9.38;6.22;;;;;;;27.14;48.68;99990.95;1706037;82;21070;-68
2021/07/30 07:56:05;;;;;;;7.90;5.70;;;;;;;27.19;49.14;99992.94;1704171;82;21129;-66
2021/07/30 07:58:33;;;;;;;7.60;5.87;;;;;;;27.30;49.59;99995.31;1707212;82;21101;-67
2021/07/30 08:00:59;;;;;;;9.38;7.35;;;;;;;27.36;49.71;100001.91;1678604;82;21163;-67
2021/07/30 08:03:26;;;;;;;15.50;7.58;;;;;;;27.41;49.75;100002.54;1704513;82;21610;-67
2021/07/30 08:05:53;;;;;;;8.33;6.60;;;;;;;27.45;48.97;100005.57;1704677;82;21117;-68
2021/07/30 08:08:20;;;;;;;9.55;6.45;;;;;;;27.48;48.48;100003.20;1705185;82;21126;-68
2021/07/30 08:10:47;;;;;;;8.73;6.95;;;;;;;27.56;49.15;99996.04;1706487;82;21106;-70
2021/07/30 08:13:15;;;;;;;8.03;6.25;;;;;;;27.69;48.38;99996.27;1701489;82;22231;-69
2021/07/30 08:15:42;;;;;;;8.25;5.80;;;;;;;27.78;47.27;99998.02;1703409;82;21600;-69
2021/07/30 08:18:09;;;;;;;8.93;5.80;;;;;;;27.82;47.01;100003.20;1667450;83;21537;-69
2021/07/30 08:20:36;;;;;;;7.97;6.28;;;;;;;27.88;46.24;99994.12;1719118;82;21725;-68
2021/07/30 08:23:03;;;;;;;7.97;5.92;;;;;;;27.98;46.22;99998.36;1716332;82;21048;-68
2021/07/30 08:25:30;;;;;;;7.60;5.85;;;;;;;28.10;45.83;100000.16;1713100;82;21127;-67
2021/07/30 08:27:56;;;;;;;9.95;6.40;;;;;;;28.22;46.56;99996.80;1717403;82;21109;-67
2021/07/30 08:30:23;;;;;;;8.03;6.08;;;;;;;28.29;46.48;99996.08;1717212;82;21113;-68
2021/07/30 08:32:50;;;;;;;8.78;6.42;;;;;;;28.35;46.02;100001.85;1718775;82;21779;-68
2021/07/30 08:35:16;;;;;;;10.35;6.30;;;;;;;28.38;45.36;99994.30;1716466;82;21154;-65
2021/07/30 08:37:43;;;;;;;10.08;6.58;;;;;;;28.40;45.12;99987.58;1693881;82;21169;-66
2021/07/30 08:40:13;;;;;;;9.78;6.22;;;;;;;28.38;45.09;99989.73;1717429;82;21079;-69
2021/07/30 08:42:39;;;;;;;8.30;6.40;;;;;;;28.34;45.13;99998.88;1718881;82;21090;-72
2021/07/30 08:45:07;;;;;;;7.58;5.75;;;;;;;28.32;44.89;99999.64;1717303;82;21047;-69
2021/07/30 08:47:33;;;;;;;7.83;6.00;;;;;;;28.37;44.89;99998.90;1692130;82;21296;-71
2021/07/30 08:49:59;;;;;;;7.65;5.92;;;;;;;28.41;45.14;100001.41;1689806;82;21129;-71
2021/07/30 08:52:37;;;;;;;9.03;6.50;;;;;;;28.46;44.25;99997.41;1694730;82;21098;-68
2021/07/30 08:55:04;;;;;;;6.85;5.58;;;;;;;28.53;43.03;99992.63;1713412;82;21167;-71
2021/07/30 08:57:31;;;;;;;11.97;6.22;;;;;;;28.58;43.50;99986.49;1719678;82;21848;-71
2021/07/30 09:00:14;;;;;;;9.48;6.47;;;;;;;28.60;43.77;99992.47;1694750;82;21066;-66
2021/07/30 09:02:41;;;;;;;8.40;6.75;;;;;;;28.65;43.79;99995.23;1716850;82;21117;-68
2021/07/30 09:05:35;;;;;;;8.05;5.80;;;;;;;28.71;43.33;99988.82;1716118;82;21125;-67
2021/07/30 09:08:05;;;;;;;7.55;5.75;;;;;;;28.78;43.99;99996.75;1715293;82;22226;-70
2021/07/30 09:10:42;;;;;;;7.67;6.30;;;;;;;28.86;43.69;99994.11;1716449;82;21131;-66
2021/07/30 09:13:27;;;;;;;8.43;6.08;;;;;;;28.85;41.81;99991.95;1720186;82;21207;-69
2021/07/30 09:16:03;;;;;;;9.00;5.75;;;;;;;28.80;42.03;99991.89;1696394;82;21388;-68
2021/07/30 09:18:38;;;;;;;7.50;5.95;;;;;;;28.73;42.24;99988.55;1720547;82;21136;-69
2021/07/30 09:21:33;;;;;;;8.65;6.35;;;;;;;28.69;43.66;99987.42;1717733;82;21101;-69
2021/07/30 09:24:07;;;;;;;8.80;5.85;;;;;;;28.69;43.09;99988.23;1717980;82;21163;-67
2021/07/30 09:26:46;;;;;;;8.43;5.45;;;;;;;28.70;43.47;99986.36;1720113;82;21071;-60
2021/07/30 09:29:24;;;;;;;8.65;6.22;;;;;;;28.75;41.86;99983.72;1693258;82;21121;-66
2021/07/30 09:32:05;;;;;;;9.95;6.10;;;;;;;28.76;41.16;99977.75;1714523;82;21084;-68
2021/07/30 09:34:38;;;;;;;7.60;5.33;;;;;;;28.69;40.97;99982.81;1716900;82;21545;-68
2021/07/30 09:37:09;;;;;;;10.55;5.10;;;;;;;28.61;41.96;99983.26;1720619;82;21098;-66
2021/07/30 09:39:42;;;;;;;8.55;5.40;;;;;;;28.62;42.61;99984.09;1715911;82;21096;-66
2021/07/30 09:42:20;;;;;;;7.35;5.42;;;;;;;28.67;42.20;99987.67;1716090;82;21114;-67
2021/07/30 09:44:55;;;;;;;7.20;5.90;;;;;;;28.70;42.28;99985.02;1717149;82;21026;-65
2021/07/30 09:47:27;;;;;;;6.28;4.78;;;;;;;28.78;41.94;99979.67;1719045;82;20927;-65
2021/07/30 09:49:58;;;;;;;6.75;4.95;;;;;;;28.87;41.99;99978.97;1716492;82;22618;-66
2021/07/30 09:52:30;;;;;;;6.58;4.45;;;;;;;28.94;40.27;99969.84;1718056;81;21066;-67
2021/07/30 09:55:06;;;;;;;6.90;5.30;;;;;;;28.94;39.81;99981.48;1714544;82;21042;-66
2021/07/30 09:57:35;;;;;;;7.15;4.72;;;;;;;28.91;40.53;99977.92;1701908;82;21428;-67
2021/07/30 10:00:13;;;;;;;10.48;4.42;;;;;;;28.86;40.48;99976.52;1718582;82;21143;-66
2021/07/30 10:02:44;;;;;;;7.50;4.58;;;;;;;28.79;39.54;99984.83;1715017;82;21058;-66
2021/07/30 10:05:13;;;;;;;7.28;4.60;;;;;;;28.74;39.65;99982.61;1715783;82;21139;-65
2021/07/30 10:07:43;;;;;;;6.05;4.25;;;;;;;28.74;39.96;99982.61;1692484;82;21141;-67
2021/07/30 10:10:24;;;;;;;7.25;4.00;;;;;;;28.79;39.87;99979.41;1719905;82;21098;-67
2021/07/30 10:12:57;;;;;;;7.15;4.75;;;;;;;28.88;39.43;99979.27;1714587;82;21074;-68
2021/07/30 10:15:24;;;;;;;7.50;5.03;;;;;;;28.99;39.14;99975.30;1717228;81;21082;-71
2021/07/30 10:17:52;;;;;;;6.70;4.53;;;;;;;29.07;40.02;99966.18;1715357;82;21106;-68
2021/07/30 10:20:21;;;;;;;7.62;5.15;;;;;;;29.19;38.27;99958.47;1720437;82;21074;-67
2021/07/30 10:23:11;;;;;;;7.05;4.92;;;;;;;29.24;38.33;99958.52;1718532;82;21080;-68
2021/07/30 10:25:48;;;;;;;8.75;4.80;;;;;;;29.22;38.58;99965.55;1717393;82;21359;-67
2021/07/30 10:28:21;;;;;;;6.97;5.20;;;;;;;29.23;39.11;99965.00;1714562;82;21612;-66
2021/07/30 10:30:55;;;;;;;6.67;4.53;;;;;;;29.26;39.49;99956.36;1691444;82;21147;-67
2021/07/30 10:33:37;;;;;;;6.30;3.77;;;;;;;29.31;38.35;99956.41;1715499;81;21100;-69
2021/07/30 10:36:09;;;;;;;5.33;3.37;;;;;;;29.34;34.68;99953.73;1716353;82;21080;-66
2021/07/30 10:38:36;;;;;;;6.40;4.15;;;;;;;29.36;35.06;99953.73;1714273;82;21080;-68
2021/07/30 10:41:13;;;;;;;7.40;3.67;;;;;;;29.34;34.90;99958.60;1715585;82;22284;-67
2021/07/30 10:44:03;;;;;;;;;;;;;;;29.28;35.71;99954.20;1696748;82;21082;-67
2021/07/30 10:46:29;;;;;;;6.42;3.08;;;;;;;29.28;36.20;99958.27;1712900;82;20572;-67
2021/07/30 10:48:56;;;;;;;5.75;3.35;;;;;;;29.22;34.37;99957.42;1714404;82;21083;-69
2021/07/30 10:51:31;;;;;;;5.55;3.08;;;;;;;29.25;33.46;99960.13;1718970;82;21130;-68
2021/07/30 10:54:05;;;;;;;6.65;3.90;;;;;;;29.24;33.61;99953.10;1691814;82;21158;-68
2021/07/30 10:56:41;;;;;;;5.30;3.08;;;;;;;29.26;34.13;99957.72;1715718;82;22276;-69
2021/07/30 10:59:08;;;;;;;6.87;3.42;;;;;;;29.34;33.31;99949.67;1719623;82;21114;-68
2021/07/30 11:01:41;;;;;;;5.17;2.95;;;;;;;29.43;33.50;99944.84;1715588;82;21073;-69
2021/07/30 11:04:09;;;;;;;5.75;3.33;;;;;;;29.58;33.64;99951.48;1717259;82;21138;-68
2021/07/30 11:30:38;;;;;;;5.60;3.92;;;;;;;31.51;32.00;99909.59;1796831;78;22673;-66
2021/07/30 11:33:05;;;;;;;8.40;3.55;;;;;;;31.40;31.23;99907.38;1746458;80;21061;-67
2021/07/30 11:35:40;;;;;;;6.33;3.72;;;;;;;31.29;31.40;99902.51;1766040;79;21071;-70
2021/07/30 11:38:06;;;;;;;6.15;3.27;;;;;;;31.26;32.10;99906.31;1770155;79;21060;-66
2021/07/30 11:40:34;;;;;;;5.50;3.55;;;;;;;31.21;32.21;99900.33;1767153;79;21054;-67
2021/07/30 11:43:06;;;;;;;4.78;2.92;;;;;;;31.23;31.88;99898.15;1769608;79;21069;-67
2021/07/30 11:48:19;;;;;;;5.35;2.80;;;;;;;31.34;29.57;99888.63;1863414;75;23808;-67
2021/07/30 11:50:46;;;;;;;5.12;3.12;;;;;;;31.39;29.34;99897.61;1838887;77;21097;-67
2021/07/30 11:53:13;;;;;;;6.12;4.03;;;;;;;31.41;29.16;99885.92;1799071;78;21040;-70
2021/07/30 11:55:47;;;;;;;5.22;3.35;;;;;;;31.38;29.31;99889.17;1770347;80;21508;-68
2021/07/30 11:58:13;;;;;;;6.47;3.05;;;;;;;31.35;29.59;99882.12;1779590;78;21599;-71
2021/07/30 12:00:40;;;;;;;5.65;3.12;;;;;;;31.40;30.29;99887.55;1801806;78;21127;-69
2021/07/30 12:03:18;;;;;;;5.97;3.75;;;;;;;31.46;29.79;99882.39;1800144;78;21086;-70
2021/07/30 12:05:45;;;;;;;5.75;3.42;;;;;;;31.42;30.08;99879.92;1801211;78;21161;-70